Time,TemperatureF,DewpointF,PressureIn,WindDirection,WindDirectionDegrees,WindSpeedMPH,WindSpeedGustMPH,Humidity,HourlyPrecipIn,Conditions,Clouds,dailyrainin,SoftwareType,DateUTC
2013-01-04 00:02:00,16.3,13.4,30.47,ESE,114,1.0,9.0,88,0.00,,---,0.00,VWS V14.01,2013-01-04 06:02:00,
2013-01-04 00:07:00,16.3,13.4,30.47,East,84,3.0,7.0,88,0.00,,---,0.00,VWS V14.01,2013-01-04 06:07:00,
2013-01-04 00:12:00,16.3,13.1,30.47,ESE,112,1.0,7.0,87,0.00,,---,0.00,VWS V14.01,2013-01-04 06:12:00,
2013-01-04 00:17:00,16.3,13.4,30.46,ESE,103,1.0,7.0,88,0.00,,---,0.00,VWS V14.01,2013-01-04 06:17:00,
2013-01-04 00:22:00,16.2,13.0,30.46,ESE,110,1.0,7.0,87,0.00,,---,0.00,VWS V14.01,2013-01-04 06:22:00,
2013-01-04 00:27:00,16.0,12.8,30.46,SE,128,2.0,7.0,87,0.00,,---,0.00,VWS V14.01,2013-01-04 06:27:00,
2013-01-04 00:32:00,15.9,12.7,30.46,ESE,121,2.0,7.0,87,0.00,,---,0.00,VWS V14.01,2013-01-04 06:32:00,
2013-01-04 00:37:00,15.8,12.6,30.46,ESE,117,1.0,3.0,87,0.00,,---,0.00,VWS V14.01,2013-01-04 06:37:00,
2013-01-04 00:42:00,15.6,12.4,30.45,East,97,2.0,5.0,87,0.00,,---,0.00,VWS V14.01,2013-01-04 06:42:00,
2013-01-04 00:47:00,15.4,12.2,30.45,ESE,103,2.0,6.0,87,0.00,,---,0.00,VWS V14.01,2013-01-04 06:47:00,
2013-01-04 00:52:00,15.3,12.4,30.45,ESE,108,2.0,6.0,88,0.00,,---,0.00,VWS V14.01,2013-01-04 06:52:00,
2013-01-04 00:57:00,15.3,12.4,30.45,East,87,3.0,6.0,88,0.00,,---,0.00,VWS V14.01,2013-01-04 06:57:00,
2013-01-04 01:02:00,15.2,12.3,30.45,East,96,2.0,6.0,88,0.00,,---,0.00,VWS V14.01,2013-01-04 07:02:00,
2013-01-04 01:07:00,15.2,12.3,30.44,East,97,3.0,6.0,88,0.00,,---,0.00,VWS V14.01,2013-01-04 07:07:00,
2013-01-04 01:12:00,15.2,12.3,30.44,East,94,3.0,6.0,88,0.00,,---,0.00,VWS V14.01,2013-01-04 07:12:00,
2013-01-04 01:17:00,15.2,12.3,30.44,ENE,68,2.0,8.0,88,0.00,,---,0.00,VWS V14.01,2013-01-04 07:17:00,
2013-01-04 01:22:00,15.1,12.2,30.44,ESE,118,2.0,8.0,88,0.00,,---,0.00,VWS V14.01,2013-01-04 07:22:00,
2013-01-04 01:27:00,15.1,12.2,30.43,ESE,106,2.0,8.0,88,0.00,,---,0.00,VWS V14.01,2013-01-04 07:27:00,
2013-01-04 01:32:00,15.3,12.6,30.43,ESE,111,2.0,8.0,89,0.00,,---,0.00,VWS V14.01,2013-01-04 07:32:00,
2013-01-04 01:37:00,15.6,12.9,30.43,East,101,3.0,6.0,89,0.00,,---,0.00,VWS V14.01,2013-01-04 07:37:00,
2013-01-04 01:42:00,15.8,12.9,30.43,ESE,112,2.0,6.0,88,0.00,,---,0.00,VWS V14.01,2013-01-04 07:42:00,
2013-01-04 01:47:00,15.8,12.9,30.43,ESE,112,2.0,6.0,88,0.00,,---,0.00,VWS V14.01,2013-01-04 07:47:00,
2013-01-04 01:52:00,15.7,12.5,30.43,East,101,3.0,6.0,87,0.00,,---,0.00,VWS V14.01,2013-01-04 07:52:00,
2013-01-04 01:57:00,15.6,12.4,30.42,East,90,4.0,8.0,87,0.00,,---,0.00,VWS V14.01,2013-01-04 07:57:00,
2013-01-04 02:02:00,15.5,12.3,30.42,ESE,110,2.0,8.0,87,0.00,,---,0.00,VWS V14.01,2013-01-04 08:02:00,
2013-01-04 02:07:00,15.4,12.2,30.42,ESE,105,3.0,6.0,87,0.00,,---,0.00,VWS V14.01,2013-01-04 08:07:00,
2013-01-04 02:12:00,15.4,12.2,30.42,ENE,64,8.0,10.0,87,0.00,,---,0.00,VWS V14.01,2013-01-04 08:12:00,
2013-01-04 02:17:00,15.3,12.1,30.42,ESE,114,3.0,10.0,87,0.00,,---,0.00,VWS V14.01,2013-01-04 08:17:00,
2013-01-04 02:22:00,15.1,11.9,30.42,East,99,4.0,10.0,87,0.00,,---,0.00,VWS V14.01,2013-01-04 08:22:00,
2013-01-04 02:27:00,15.0,11.8,30.42,East,84,4.0,10.0,87,0.00,,---,0.00,VWS V14.01,2013-01-04 08:27:00,
2013-01-04 02:32:00,15.0,11.8,30.42,ESE,109,3.0,10.0,87,0.00,,---,0.00,VWS V14.01,2013-01-04 08:32:00,
2013-01-04 02:37:00,14.9,11.7,30.42,ESE,120,3.0,8.0,87,0.00,,---,0.00,VWS V14.01,2013-01-04 08:37:00,
2013-01-04 02:42:00,14.9,11.7,30.42,East,85,5.0,8.0,87,0.00,,---,0.00,VWS V14.01,2013-01-04 08:42:00,
2013-01-04 02:47:00,14.9,11.5,30.42,East,85,3.0,8.0,86,0.00,,---,0.00,VWS V14.01,2013-01-04 08:47:00,
2013-01-04 02:52:00,14.7,11.3,30.42,East,82,4.0,8.0,86,0.00,,---,0.00,VWS V14.01,2013-01-04 08:52:00,
2013-01-04 02:57:00,14.5,11.1,30.42,East,82,2.0,8.0,86,0.00,,---,0.00,VWS V14.01,2013-01-04 08:57:00,
2013-01-04 03:02:00,14.2,10.8,30.42,East,87,4.0,8.0,86,0.00,,---,0.00,VWS V14.01,2013-01-04 09:02:00,
2013-01-04 03:07:00,14.0,10.6,30.42,East,82,3.0,5.0,86,0.00,,---,0.00,VWS V14.01,2013-01-04 09:07:00,
2013-01-04 03:12:00,13.8,10.4,30.42,East,96,1.0,5.0,86,0.00,,---,0.00,VWS V14.01,2013-01-04 09:12:00,
2013-01-04 03:17:00,13.8,10.6,30.42,SE,125,2.0,5.0,87,0.00,,---,0.00,VWS V14.01,2013-01-04 09:17:00,
2013-01-04 03:22:00,13.8,10.4,30.42,ESE,120,2.0,5.0,86,0.00,,---,0.00,VWS V14.01,2013-01-04 09:22:00,
2013-01-04 03:27:00,13.7,10.3,30.42,ESE,108,2.0,5.0,86,0.00,,---,0.00,VWS V14.01,2013-01-04 09:27:00,
2013-01-04 03:32:00,13.6,10.2,30.42,ESE,116,1.0,5.0,86,0.00,,---,0.00,VWS V14.01,2013-01-04 09:32:00,
2013-01-04 03:37:00,13.6,10.2,30.42,ESE,113,2.0,4.0,86,0.00,,---,0.00,VWS V14.01,2013-01-04 09:37:00,
2013-01-04 03:42:00,13.4,10.0,30.42,SE,125,1.0,4.0,86,0.00,,---,0.00,VWS V14.01,2013-01-04 09:42:00,
2013-01-04 03:47:00,13.2,9.8,30.42,ESE,114,1.0,4.0,86,0.00,,---,0.00,VWS V14.01,2013-01-04 09:47:00,
2013-01-04 03:52:00,13.0,9.6,30.42,East,89,3.0,4.0,86,0.00,,---,0.00,VWS V14.01,2013-01-04 09:52:00,
2013-01-04 03:57:00,12.9,9.5,30.42,ESE,110,1.0,6.0,86,0.00,,---,0.00,VWS V14.01,2013-01-04 09:57:00,
2013-01-04 04:02:00,12.7,9.3,30.42,ESE,109,0.0,6.0,86,0.00,,---,0.00,VWS V14.01,2013-01-04 10:02:00,
2013-01-04 04:07:00,12.5,9.1,30.42,ESE,108,2.0,3.0,86,0.00,,---,0.00,VWS V14.01,2013-01-04 10:07:00,
2013-01-04 04:12:00,12.3,8.9,30.42,ESE,114,1.0,3.0,86,0.00,,---,0.00,VWS V14.01,2013-01-04 10:12:00,
2013-01-04 04:17:00,12.1,8.7,30.42,ESE,112,1.0,3.0,86,0.00,,---,0.00,VWS V14.01,2013-01-04 10:17:00,
2013-01-04 04:22:00,12.1,8.7,30.42,ESE,114,1.0,3.0,86,0.00,,---,0.00,VWS V14.01,2013-01-04 10:22:00,
2013-01-04 04:27:00,12.0,8.9,30.42,ESE,109,1.0,3.0,87,0.00,,---,0.00,VWS V14.01,2013-01-04 10:27:00,
2013-01-04 04:32:00,11.9,8.5,30.41,ESE,105,1.0,3.0,86,0.00,,---,0.00,VWS V14.01,2013-01-04 10:32:00,
2013-01-04 04:37:00,11.9,8.5,30.41,ESE,103,1.0,3.0,86,0.00,,---,0.00,VWS V14.01,2013-01-04 10:37:00,
2013-01-04 04:42:00,11.8,8.4,30.41,East,92,2.0,5.0,86,0.00,,---,0.00,VWS V14.01,2013-01-04 10:42:00,
2013-01-04 04:47:00,11.9,8.5,30.41,East,94,3.0,5.0,86,0.00,,---,0.00,VWS V14.01,2013-01-04 10:47:00,
2013-01-04 04:52:00,11.8,8.4,30.41,ESE,117,1.0,5.0,86,0.00,,---,0.00,VWS V14.01,2013-01-04 10:52:00,
2013-01-04 04:57:00,11.6,8.0,30.41,ESE,120,1.0,5.0,85,0.00,,---,0.00,VWS V14.01,2013-01-04 10:57:00,
2013-01-04 05:02:00,11.6,8.2,30.41,ESE,113,2.0,5.0,86,0.00,,---,0.00,VWS V14.01,2013-01-04 11:02:00,
2013-01-04 05:07:00,11.6,8.2,30.41,East,88,2.0,4.0,86,0.00,,---,0.00,VWS V14.01,2013-01-04 11:07:00,
2013-01-04 05:12:00,11.6,8.2,30.41,ESE,117,2.0,5.0,86,0.00,,---,0.00,VWS V14.01,2013-01-04 11:12:00,
2013-01-04 05:17:00,11.5,7.9,30.40,ESE,117,1.0,5.0,85,0.00,,---,0.00,VWS V14.01,2013-01-04 11:17:00,
2013-01-04 05:22:00,11.4,8.0,30.40,ESE,104,2.0,6.0,86,0.00,,---,0.00,VWS V14.01,2013-01-04 11:22:00,
2013-01-04 05:27:00,11.4,7.8,30.40,East,84,3.0,6.0,85,0.00,,---,0.00,VWS V14.01,2013-01-04 11:27:00,
2013-01-04 05:32:00,11.1,7.5,30.40,East,82,3.0,6.0,85,0.00,,---,0.00,VWS V14.01,2013-01-04 11:32:00,
2013-01-04 05:37:00,10.9,7.3,30.40,East,82,3.0,5.0,85,0.00,,---,0.00,VWS V14.01,2013-01-04 11:37:00,
2013-01-04 05:42:00,10.7,7.1,30.40,East,97,2.0,6.0,85,0.00,,---,0.00,VWS V14.01,2013-01-04 11:42:00,
2013-01-04 05:47:00,10.7,7.3,30.40,SE,127,1.0,6.0,86,0.00,,---,0.00,VWS V14.01,2013-01-04 11:47:00,
2013-01-04 05:52:00,10.7,7.3,30.40,East,101,2.0,6.0,86,0.00,,---,0.00,VWS V14.01,2013-01-04 11:52:00,
2013-01-04 05:57:00,10.7,7.1,30.40,ESE,109,0.0,6.0,85,0.00,,---,0.00,VWS V14.01,2013-01-04 11:57:00,
2013-01-04 06:02:00,10.6,7.0,30.40,ESE,110,1.0,6.0,85,0.00,,---,0.00,VWS V14.01,2013-01-04 12:02:00,
2013-01-04 06:07:00,10.6,7.2,30.40,East,94,3.0,4.0,86,0.00,,---,0.00,VWS V14.01,2013-01-04 12:07:00,
2013-01-04 06:12:00,10.6,7.2,30.40,East,85,4.0,6.0,86,0.00,,---,0.00,VWS V14.01,2013-01-04 12:12:00,
2013-01-04 06:17:00,10.8,7.4,30.40,East,82,3.0,6.0,86,0.00,,---,0.00,VWS V14.01,2013-01-04 12:17:00,
2013-01-04 06:22:00,11.0,7.6,30.40,ESE,110,2.0,6.0,86,0.00,,---,0.00,VWS V14.01,2013-01-04 12:22:00,
2013-01-04 06:27:00,11.1,7.7,30.40,ESE,110,2.0,6.0,86,0.00,,---,0.00,VWS V14.01,2013-01-04 12:27:00,
2013-01-04 06:32:00,11.2,7.6,30.39,ENE,67,5.0,6.0,85,0.00,,---,0.00,VWS V14.01,2013-01-04 12:32:00,
2013-01-04 06:37:00,11.1,7.5,30.40,East,94,3.0,6.0,85,0.00,,---,0.00,VWS V14.01,2013-01-04 12:37:00,
2013-01-04 06:42:00,11.2,7.6,30.40,ESE,106,2.0,6.0,85,0.00,,---,0.00,VWS V14.01,2013-01-04 12:42:00,
2013-01-04 06:47:00,11.1,7.5,30.40,ESE,111,2.0,6.0,85,0.00,,---,0.00,VWS V14.01,2013-01-04 12:47:00,
2013-01-04 06:52:00,11.1,7.5,30.40,ESE,109,2.0,6.0,85,0.00,,---,0.00,VWS V14.01,2013-01-04 12:52:00,
2013-01-04 06:57:00,11.0,7.1,30.40,ESE,113,2.0,6.0,84,0.00,,---,0.00,VWS V14.01,2013-01-04 12:57:00,
2013-01-04 07:02:00,11.0,7.1,30.40,ESE,114,2.0,6.0,84,0.00,,---,0.00,VWS V14.01,2013-01-04 13:02:00,
2013-01-04 07:07:00,11.0,7.4,30.40,ESE,123,1.0,3.0,85,0.00,,---,0.00,VWS V14.01,2013-01-04 13:07:00,
2013-01-04 07:12:00,11.0,7.4,30.40,ESE,120,1.0,3.0,85,0.00,,---,0.00,VWS V14.01,2013-01-04 13:12:00,
2013-01-04 07:17:00,11.0,7.1,30.40,ESE,118,1.0,3.0,84,0.00,,---,0.00,VWS V14.01,2013-01-04 13:17:00,
2013-01-04 07:22:00,11.0,7.1,30.40,ESE,104,1.0,3.0,84,0.00,,---,0.00,VWS V14.01,2013-01-04 13:22:00,
2013-01-04 07:27:00,11.0,7.4,30.40,East,99,1.0,4.0,85,0.00,,---,0.00,VWS V14.01,2013-01-04 13:27:00,
2013-01-04 07:32:00,11.0,7.1,30.40,ESE,120,1.0,4.0,84,0.00,,---,0.00,VWS V14.01,2013-01-04 13:32:00,
2013-01-04 07:37:00,11.0,7.1,30.40,ESE,120,0.0,2.0,84,0.00,,---,0.00,VWS V14.01,2013-01-04 13:37:00,
2013-01-04 07:42:00,10.9,7.0,30.40,ESE,123,0.0,3.0,84,0.00,,---,0.00,VWS V14.01,2013-01-04 13:42:00,
2013-01-04 07:47:00,10.9,7.0,30.40,ESE,103,1.0,3.0,84,0.00,,---,0.00,VWS V14.01,2013-01-04 13:47:00,
2013-01-04 07:52:00,10.9,7.0,30.40,ESE,118,2.0,3.0,84,0.00,,---,0.00,VWS V14.01,2013-01-04 13:52:00,
2013-01-04 07:57:00,10.8,6.9,30.40,ESE,117,1.0,3.0,84,0.00,,---,0.00,VWS V14.01,2013-01-04 13:57:00,
2013-01-04 08:02:00,10.7,6.8,30.41,ESE,123,3.0,4.0,84,0.00,,---,0.00,VWS V14.01,2013-01-04 14:02:00,
2013-01-04 08:07:00,10.7,6.8,30.41,ESE,117,2.0,3.0,84,0.00,,---,0.00,VWS V14.01,2013-01-04 14:07:00,
2013-01-04 08:12:00,10.7,6.8,30.41,ESE,114,2.0,5.0,84,0.00,,---,0.00,VWS V14.01,2013-01-04 14:12:00,
2013-01-04 08:17:00,10.9,7.0,30.41,East,90,3.0,5.0,84,0.00,,---,0.00,VWS V14.01,2013-01-04 14:17:00,
2013-01-04 08:22:00,11.2,7.3,30.40,ESE,118,1.0,5.0,84,0.00,,---,0.00,VWS V14.01,2013-01-04 14:22:00,
2013-01-04 08:27:00,11.4,7.2,30.40,ESE,113,3.0,5.0,83,0.00,,---,0.00,VWS V14.01,2013-01-04 14:27:00,
2013-01-04 08:32:00,11.7,7.3,30.40,ESE,114,1.0,5.0,82,0.00,,---,0.00,VWS V14.01,2013-01-04 14:32:00,
2013-01-04 08:37:00,12.0,7.6,30.41,East,96,3.0,3.0,82,0.00,,---,0.00,VWS V14.01,2013-01-04 14:37:00,
2013-01-04 08:42:00,12.3,7.9,30.40,ESE,111,2.0,5.0,82,0.00,,---,0.00,VWS V14.01,2013-01-04 14:42:00,
2013-01-04 08:47:00,12.7,8.0,30.41,SE,125,1.0,5.0,81,0.00,,---,0.00,VWS V14.01,2013-01-04 14:47:00,
2013-01-04 08:52:00,12.9,7.9,30.41,ESE,123,2.0,5.0,80,0.00,,---,0.00,VWS V14.01,2013-01-04 14:52:00,
2013-01-04 08:57:00,13.1,8.1,30.41,ESE,121,4.0,6.0,80,0.00,,---,0.00,VWS V14.01,2013-01-04 14:57:00,
2013-01-04 09:02:00,13.2,7.9,30.41,SE,125,4.0,7.0,79,0.00,,---,0.00,VWS V14.01,2013-01-04 15:02:00,
2013-01-04 09:07:00,13.5,8.5,30.41,ESE,119,2.0,4.0,80,0.00,,---,0.00,VWS V14.01,2013-01-04 15:07:00,
2013-01-04 09:12:00,13.8,8.5,30.41,ESE,116,3.0,6.0,79,0.00,,---,0.00,VWS V14.01,2013-01-04 15:12:00,
2013-01-04 09:17:00,14.1,8.8,30.41,ESE,120,3.0,6.0,79,0.00,,---,0.00,VWS V14.01,2013-01-04 15:17:00,
2013-01-04 09:22:00,14.4,8.8,30.41,ESE,120,3.0,6.0,78,0.00,,---,0.00,VWS V14.01,2013-01-04 15:22:00,
2013-01-04 09:27:00,14.7,9.1,30.42,SE,130,4.0,6.0,78,0.00,,---,0.00,VWS V14.01,2013-01-04 15:27:00,
2013-01-04 09:32:00,14.8,9.2,30.42,ESE,115,4.0,6.0,78,0.00,,---,0.00,VWS V14.01,2013-01-04 15:32:00,
2013-01-04 09:37:00,15.2,9.3,30.42,ESE,103,4.0,5.0,77,0.00,,---,0.00,VWS V14.01,2013-01-04 15:37:00,
2013-01-04 09:42:00,15.2,9.0,30.42,ESE,110,3.0,7.0,76,0.00,,---,0.00,VWS V14.01,2013-01-04 15:42:00,
2013-01-04 09:47:00,15.4,9.5,30.43,ESE,116,3.0,7.0,77,0.00,,---,0.00,VWS V14.01,2013-01-04 15:47:00,
2013-01-04 09:52:00,15.6,9.4,30.43,ESE,120,3.0,7.0,76,0.00,,---,0.00,VWS V14.01,2013-01-04 15:52:00,
2013-01-04 09:57:00,16.0,9.8,30.43,ESE,119,3.0,7.0,76,0.00,,---,0.00,VWS V14.01,2013-01-04 15:57:00,
2013-01-04 10:02:00,16.2,10.0,30.43,ESE,105,4.0,7.0,76,0.00,,---,0.00,VWS V14.01,2013-01-04 16:02:00,
2013-01-04 10:07:00,16.3,9.8,30.43,ESE,120,2.0,6.0,75,0.00,,---,0.00,VWS V14.01,2013-01-04 16:07:00,
2013-01-04 10:12:00,16.5,10.3,30.43,ESE,113,3.0,6.0,76,0.00,,---,0.00,VWS V14.01,2013-01-04 16:12:00,
2013-01-04 10:17:00,16.7,10.2,30.43,ESE,108,4.0,6.0,75,0.00,,---,0.00,VWS V14.01,2013-01-04 16:17:00,
2013-01-04 10:22:00,17.0,10.5,30.43,ESE,121,3.0,6.0,75,0.00,,---,0.00,VWS V14.01,2013-01-04 16:22:00,
2013-01-04 10:27:00,17.6,11.0,30.43,ESE,116,4.0,6.0,75,0.00,,---,0.00,VWS V14.01,2013-01-04 16:27:00,
2013-01-04 10:32:00,17.8,10.9,30.43,SE,139,3.0,6.0,74,0.00,,---,0.00,VWS V14.01,2013-01-04 16:32:00,
2013-01-04 10:36:00,18.2,11.6,30.43,ESE,120,4.0,5.0,75,0.00,,---,0.00,VWS V14.01,2013-01-04 16:36:00,
2013-01-04 10:42:00,18.6,11.7,30.43,SE,127,3.0,5.0,74,0.00,,---,0.00,VWS V14.01,2013-01-04 16:42:00,
2013-01-04 10:46:00,19.0,12.1,30.43,ESE,118,4.0,5.0,74,0.00,,---,0.00,VWS V14.01,2013-01-04 16:46:00,
2013-01-04 10:51:00,19.4,12.5,30.43,ESE,114,2.0,5.0,74,0.00,,---,0.00,VWS V14.01,2013-01-04 16:51:00,
2013-01-04 10:56:00,20.2,12.9,30.43,ESE,123,2.0,5.0,73,0.00,,---,0.00,VWS V14.01,2013-01-04 16:56:00,
2013-01-04 11:01:00,20.6,13.0,30.43,ESE,118,1.0,5.0,72,0.00,,---,0.00,VWS V14.01,2013-01-04 17:01:00,
2013-01-04 11:06:00,21.1,13.2,30.43,ESE,121,2.0,4.0,71,0.00,,---,0.00,VWS V14.01,2013-01-04 17:06:00,
2013-01-04 11:12:00,21.2,13.3,30.43,ESE,114,3.0,5.0,71,0.00,,---,0.00,VWS V14.01,2013-01-04 17:12:00,
2013-01-04 11:17:00,22.0,14.1,30.43,East,88,3.0,5.0,71,0.00,,---,0.00,VWS V14.01,2013-01-04 17:17:00,
2013-01-04 11:22:00,22.7,14.4,30.43,ESE,114,2.0,5.0,70,0.00,,---,0.00,VWS V14.01,2013-01-04 17:22:00,
2013-01-04 11:27:00,23.2,14.6,30.43,East,85,4.0,8.0,69,0.00,,---,0.00,VWS V14.01,2013-01-04 17:27:00,
2013-01-04 11:32:00,23.5,14.5,30.42,East,101,2.0,8.0,68,0.00,,---,0.00,VWS V14.01,2013-01-04 17:32:00,
2013-01-04 11:37:00,24.0,15.3,30.43,ESE,106,3.0,7.0,69,0.00,,---,0.00,VWS V14.01,2013-01-04 17:37:00,
2013-01-04 11:42:00,24.2,15.5,30.42,ESE,121,1.0,7.0,69,0.00,,---,0.00,VWS V14.01,2013-01-04 17:42:00,
2013-01-04 11:47:00,24.8,15.8,30.42,ESE,102,4.0,7.0,68,0.00,,---,0.00,VWS V14.01,2013-01-04 17:47:00,
2013-01-04 11:52:00,25.0,15.6,30.41,ESE,103,2.0,7.0,67,0.00,,---,0.00,VWS V14.01,2013-01-04 17:52:00,
2013-01-04 11:57:00,25.1,15.4,30.41,ESE,108,1.0,7.0,66,0.00,,---,0.00,VWS V14.01,2013-01-04 17:57:00,
2013-01-04 12:02:00,25.0,15.3,30.41,East,90,3.0,7.0,66,0.00,,---,0.00,VWS V14.01,2013-01-04 18:02:00,
2013-01-04 12:07:00,25.2,15.8,30.41,SE,132,1.0,4.0,67,0.00,,---,0.00,VWS V14.01,2013-01-04 18:07:00,
2013-01-04 12:12:00,25.3,15.9,30.41,ESE,110,1.0,4.0,67,0.00,,---,0.00,VWS V14.01,2013-01-04 18:12:00,
2013-01-04 12:17:00,25.7,16.3,30.40,ESE,108,2.0,5.0,67,0.00,,---,0.00,VWS V14.01,2013-01-04 18:17:00,
2013-01-04 12:22:00,25.9,16.1,30.40,ESE,104,3.0,5.0,66,0.00,,---,0.00,VWS V14.01,2013-01-04 18:22:00,
2013-01-04 12:27:00,26.0,16.2,30.40,ENE,68,4.0,6.0,66,0.00,,---,0.00,VWS V14.01,2013-01-04 18:27:00,
2013-01-04 12:32:00,26.1,16.3,30.40,East,80,4.0,7.0,66,0.00,,---,0.00,VWS V14.01,2013-01-04 18:32:00,
2013-01-04 12:37:00,26.5,17.0,30.40,ESE,119,3.0,4.0,67,0.00,,---,0.00,VWS V14.01,2013-01-04 18:37:00,
2013-01-04 12:42:00,26.8,17.0,30.39,ESE,112,2.0,5.0,66,0.00,,---,0.00,VWS V14.01,2013-01-04 18:42:00,
2013-01-04 12:47:00,27.3,17.1,30.39,ESE,110,1.0,5.0,65,0.00,,---,0.00,VWS V14.01,2013-01-04 18:47:00,
2013-01-04 12:52:00,27.5,17.3,30.39,East,92,4.0,6.0,65,0.00,,---,0.00,VWS V14.01,2013-01-04 18:52:00,
2013-01-04 12:57:00,28.0,17.4,30.39,ESE,117,3.0,6.0,64,0.00,,---,0.00,VWS V14.01,2013-01-04 18:57:00,
2013-01-04 13:02:00,28.2,17.2,30.38,ESE,112,3.0,6.0,63,0.00,,---,0.00,VWS V14.01,2013-01-04 19:02:00,
2013-01-04 13:07:00,28.0,17.4,30.38,ESE,110,1.0,5.0,64,0.00,,---,0.00,VWS V14.01,2013-01-04 19:07:00,
2013-01-04 13:12:00,28.3,17.7,30.38,SE,128,2.0,5.0,64,0.00,,---,0.00,VWS V14.01,2013-01-04 19:12:00,
2013-01-04 13:17:00,28.1,17.5,30.37,SE,125,3.0,5.0,64,0.00,,---,0.00,VWS V14.01,2013-01-04 19:17:00,
2013-01-04 13:22:00,28.3,18.4,30.37,SE,132,3.0,5.0,66,0.00,,---,0.00,VWS V14.01,2013-01-04 19:22:00,
2013-01-04 13:27:00,28.3,18.8,30.36,SE,129,0.0,5.0,67,0.00,,---,0.00,VWS V14.01,2013-01-04 19:27:00,
2013-01-04 13:32:00,29.1,19.2,30.36,East,99,2.0,5.0,66,0.00,,---,0.00,VWS V14.01,2013-01-04 19:32:00,
2013-01-04 13:37:00,29.7,19.0,30.36,ESE,116,1.0,3.0,64,0.00,,---,0.00,VWS V14.01,2013-01-04 19:37:00,
2013-01-04 13:42:00,30.2,19.1,30.36,SE,127,3.0,3.0,63,0.00,,---,0.00,VWS V14.01,2013-01-04 19:42:00,
2013-01-04 13:47:00,29.7,18.7,30.35,SE,125,3.0,4.0,63,0.00,,---,0.00,VWS V14.01,2013-01-04 19:47:00,
2013-01-04 13:52:00,29.9,19.6,30.35,ESE,118,1.0,4.0,65,0.00,,---,0.00,VWS V14.01,2013-01-04 19:52:00,
2013-01-04 13:57:00,30.4,19.7,30.35,ESE,118,1.0,6.0,64,0.00,,---,0.00,VWS V14.01,2013-01-04 19:57:00,
2013-01-04 14:02:00,30.6,18.8,30.35,ESE,120,1.0,6.0,61,0.00,,---,0.00,VWS V14.01,2013-01-04 20:02:00,
2013-01-04 14:07:00,30.6,19.5,30.35,SE,128,1.0,3.0,63,0.00,,---,0.00,VWS V14.01,2013-01-04 20:07:00,
2013-01-04 14:12:00,30.6,19.1,30.34,SSE,149,3.0,4.0,62,0.00,,---,0.00,VWS V14.01,2013-01-04 20:12:00,
2013-01-04 14:17:00,30.5,18.7,30.33,SE,140,2.0,4.0,61,0.00,,---,0.00,VWS V14.01,2013-01-04 20:17:00,
2013-01-04 14:22:00,30.6,18.0,30.33,SSE,149,2.0,5.0,59,0.00,,---,0.00,VWS V14.01,2013-01-04 20:22:00,
2013-01-04 14:27:00,31.1,18.5,30.33,SE,142,3.0,5.0,59,0.00,,---,0.00,VWS V14.01,2013-01-04 20:27:00,
2013-01-04 14:32:00,31.1,18.5,30.33,SE,144,3.0,5.0,59,0.00,,---,0.00,VWS V14.01,2013-01-04 20:32:00,
2013-01-04 14:36:00,31.4,19.5,30.33,SE,135,0.0,3.0,61,0.00,,---,0.00,VWS V14.01,2013-01-04 20:36:00,
2013-01-04 14:41:00,32.2,19.9,30.33,ESE,109,2.0,5.0,60,0.00,,---,0.00,VWS V14.01,2013-01-04 20:41:00,
2013-01-04 14:46:00,33.2,20.4,30.33,ESE,120,2.0,5.0,59,0.00,,---,0.00,VWS V14.01,2013-01-04 20:46:00,
2013-01-04 14:52:00,33.3,19.7,30.33,SE,133,1.0,5.0,57,0.00,,---,0.00,VWS V14.01,2013-01-04 20:52:00,
2013-01-04 14:56:00,33.5,20.3,30.32,ESE,123,1.0,5.0,58,0.00,,---,0.00,VWS V14.01,2013-01-04 20:56:00,
2013-01-04 15:01:00,34.1,19.6,30.32,ESE,123,1.0,5.0,55,0.00,,---,0.00,VWS V14.01,2013-01-04 21:01:00,
2013-01-04 15:06:00,34.5,20.9,30.33,East,87,3.0,4.0,57,0.00,,---,0.00,VWS V14.01,2013-01-04 21:06:00,
2013-01-04 15:12:00,34.8,21.5,30.33,ENE,78,4.0,5.0,58,0.00,,---,0.00,VWS V14.01,2013-01-04 21:12:00,
2013-01-04 15:16:00,34.6,20.5,30.33,ESE,108,3.0,6.0,56,0.00,,---,0.00,VWS V14.01,2013-01-04 21:16:00,
2013-01-04 15:21:00,33.9,20.3,30.33,ESE,104,2.0,9.0,57,0.00,,---,0.00,VWS V14.01,2013-01-04 21:21:00,
2013-01-04 15:26:00,33.6,20.4,30.33,ENE,78,3.0,9.0,58,0.00,,---,0.00,VWS V14.01,2013-01-04 21:26:00,
2013-01-04 15:31:00,33.1,20.4,30.33,East,86,3.0,9.0,59,0.00,,---,0.00,VWS V14.01,2013-01-04 21:31:00,
2013-01-04 15:37:00,32.6,20.3,30.33,ENE,62,3.0,6.0,60,0.00,,---,0.00,VWS V14.01,2013-01-04 21:37:00,
2013-01-04 15:42:00,32.4,20.1,30.34,ENE,70,2.0,6.0,60,0.00,,---,0.00,VWS V14.01,2013-01-04 21:42:00,
2013-01-04 15:47:00,32.1,19.8,30.34,East,94,2.0,6.0,60,0.00,,---,0.00,VWS V14.01,2013-01-04 21:47:00,
2013-01-04 15:52:00,31.8,19.9,30.34,NNE,24,6.0,6.0,61,0.00,,---,0.00,VWS V14.01,2013-01-04 21:52:00,
2013-01-04 15:57:00,31.3,19.4,30.34,ENE,66,4.0,7.0,61,0.00,,---,0.00,VWS V14.01,2013-01-04 21:57:00,
2013-01-04 16:01:00,30.6,19.5,30.34,East,83,3.0,8.0,63,0.00,,---,0.00,VWS V14.01,2013-01-04 22:01:00,
2013-01-04 16:06:00,30.4,19.7,30.34,ENE,57,4.0,6.0,64,0.00,,---,0.00,VWS V14.01,2013-01-04 22:06:00,
2013-01-04 16:11:00,29.9,19.2,30.34,East,92,3.0,7.0,64,0.00,,---,0.00,VWS V14.01,2013-01-04 22:11:00,
2013-01-04 16:16:00,29.5,19.6,30.34,East,84,2.0,7.0,66,0.00,,---,0.00,VWS V14.01,2013-01-04 22:16:00,
2013-01-04 16:21:00,29.3,19.7,30.34,East,91,1.0,7.0,67,0.00,,---,0.00,VWS V14.01,2013-01-04 22:21:00,
2013-01-04 16:27:00,29.0,19.4,30.34,East,89,1.0,7.0,67,0.00,,---,0.00,VWS V14.01,2013-01-04 22:27:00,
2013-01-04 16:31:00,28.8,19.6,30.34,East,97,3.0,7.0,68,0.00,,---,0.00,VWS V14.01,2013-01-04 22:31:00,
2013-01-04 16:37:00,28.6,19.4,30.33,ESE,118,1.0,4.0,68,0.00,,---,0.00,VWS V14.01,2013-01-04 22:37:00,
2013-01-04 16:42:00,28.5,19.6,30.33,ESE,114,1.0,4.0,69,0.00,,---,0.00,VWS V14.01,2013-01-04 22:42:00,
2013-01-04 16:47:00,28.2,19.4,30.33,East,88,4.0,4.0,69,0.00,,---,0.00,VWS V14.01,2013-01-04 22:47:00,
2013-01-04 16:52:00,27.7,19.2,30.34,ENE,67,3.0,8.0,70,0.00,,---,0.00,VWS V14.01,2013-01-04 22:52:00,
2013-01-04 16:57:00,27.1,18.6,30.34,East,96,5.0,8.0,70,0.00,,---,0.00,VWS V14.01,2013-01-04 22:57:00,
2013-01-04 17:02:00,26.5,18.4,30.34,NE,54,6.0,9.0,71,0.00,,---,0.00,VWS V14.01,2013-01-04 23:02:00,
2013-01-04 17:07:00,26.1,18.3,30.34,ENE,75,4.0,9.0,72,0.00,,---,0.00,VWS V14.01,2013-01-04 23:07:00,
2013-01-04 17:12:00,25.7,17.9,30.34,NE,35,4.0,9.0,72,0.00,,---,0.00,VWS V14.01,2013-01-04 23:12:00,
2013-01-04 17:17:00,25.2,17.8,30.34,East,80,4.0,9.0,73,0.00,,---,0.00,VWS V14.01,2013-01-04 23:17:00,
2013-01-04 17:22:00,24.8,17.7,30.34,ENE,73,6.0,10.0,74,0.00,,---,0.00,VWS V14.01,2013-01-04 23:22:00,
2013-01-04 17:27:00,24.5,17.7,30.34,East,85,8.0,10.0,75,0.00,,---,0.00,VWS V14.01,2013-01-04 23:27:00,
2013-01-04 17:32:00,24.2,17.4,30.34,ENE,70,8.0,10.0,75,0.00,,---,0.00,VWS V14.01,2013-01-04 23:32:00,
2013-01-04 17:37:00,23.9,17.1,30.34,East,84,5.0,7.0,75,0.00,,---,0.00,VWS V14.01,2013-01-04 23:37:00,
2013-01-04 17:42:00,23.6,17.2,30.34,East,99,3.0,7.0,76,0.00,,---,0.00,VWS V14.01,2013-01-04 23:42:00,
2013-01-04 17:47:00,23.4,17.0,30.34,ESE,111,4.0,8.0,76,0.00,,---,0.00,VWS V14.01,2013-01-04 23:47:00,
2013-01-04 17:52:00,23.1,16.7,30.34,East,84,3.0,8.0,76,0.00,,---,0.00,VWS V14.01,2013-01-04 23:52:00,
2013-01-04 17:57:00,22.9,16.5,30.33,East,96,5.0,10.0,76,0.00,,---,0.00,VWS V14.01,2013-01-04 23:57:00,
2013-01-04 18:02:00,22.8,16.4,30.33,East,91,3.0,10.0,76,0.00,,---,0.00,VWS V14.01,2013-01-05 00:02:00,
2013-01-04 18:07:00,22.5,16.1,30.34,East,85,4.0,9.0,76,0.00,,---,0.00,VWS V14.01,2013-01-05 00:07:00,
2013-01-04 18:12:00,22.2,15.8,30.34,ESE,109,2.0,9.0,76,0.00,,---,0.00,VWS V14.01,2013-01-05 00:12:00,
2013-01-04 18:17:00,22.0,15.6,30.33,ESE,109,2.0,9.0,76,0.00,,---,0.00,VWS V14.01,2013-01-05 00:17:00,
2013-01-04 18:22:00,21.8,15.4,30.33,East,99,2.0,9.0,76,0.00,,---,0.00,VWS V14.01,2013-01-05 00:22:00,
2013-01-04 18:27:00,21.7,15.3,30.33,ESE,111,6.0,9.0,76,0.00,,---,0.00,VWS V14.01,2013-01-05 00:27:00,
2013-01-04 18:32:00,21.6,15.2,30.33,East,82,6.0,9.0,76,0.00,,---,0.00,VWS V14.01,2013-01-05 00:32:00,
2013-01-04 18:37:00,21.4,15.0,30.33,East,81,7.0,8.0,76,0.00,,---,0.00,VWS V14.01,2013-01-05 00:37:00,
2013-01-04 18:41:00,21.4,15.0,30.33,ESE,114,5.0,8.0,76,0.00,,---,0.00,VWS V14.01,2013-01-05 00:41:00,
2013-01-04 18:46:00,21.2,14.8,30.33,ENE,60,10.0,10.0,76,0.00,,---,0.00,VWS V14.01,2013-01-05 00:46:00,
2013-01-04 18:51:00,21.1,14.7,30.33,ENE,77,5.0,10.0,76,0.00,,---,0.00,VWS V14.01,2013-01-05 00:51:00,
2013-01-04 18:56:00,20.9,14.5,30.34,East,87,10.0,10.0,76,0.00,,---,0.00,VWS V14.01,2013-01-05 00:56:00,
2013-01-04 19:01:00,20.8,14.4,30.33,East,82,6.0,10.0,76,0.00,,---,0.00,VWS V14.01,2013-01-05 01:01:00,
2013-01-04 19:06:00,20.8,14.7,30.33,East,85,4.0,8.0,77,0.00,,---,0.00,VWS V14.01,2013-01-05 01:06:00,
2013-01-04 19:11:00,20.6,14.2,30.33,East,85,5.0,9.0,76,0.00,,---,0.00,VWS V14.01,2013-01-05 01:11:00,
2013-01-04 19:16:00,20.4,14.1,30.33,ENE,73,6.0,9.0,76,0.00,,---,0.00,VWS V14.01,2013-01-05 01:16:00,
2013-01-04 19:21:00,20.1,14.1,30.33,ENE,78,5.0,9.0,77,0.00,,---,0.00,VWS V14.01,2013-01-05 01:21:00,
2013-01-04 19:26:00,19.9,13.9,30.33,ENE,78,4.0,9.0,77,0.00,,---,0.00,VWS V14.01,2013-01-05 01:26:00,
2013-01-04 19:31:00,19.8,14.1,30.33,East,82,5.0,9.0,78,0.00,,---,0.00,VWS V14.01,2013-01-05 01:31:00,
2013-01-04 19:36:00,19.7,14.0,30.33,East,81,5.0,8.0,78,0.00,,---,0.00,VWS V14.01,2013-01-05 01:36:00,
2013-01-04 19:41:00,19.8,14.1,30.33,ENE,74,6.0,9.0,78,0.00,,---,0.00,VWS V14.01,2013-01-05 01:41:00,
2013-01-04 19:46:00,19.8,13.8,30.33,East,97,5.0,9.0,77,0.00,,---,0.00,VWS V14.01,2013-01-05 01:46:00,
2013-01-04 19:51:00,19.8,13.8,30.33,East,92,6.0,10.0,77,0.00,,---,0.00,VWS V14.01,2013-01-05 01:51:00,
2013-01-04 19:56:00,19.8,13.8,30.33,ENE,60,6.0,10.0,77,0.00,,---,0.00,VWS V14.01,2013-01-05 01:56:00,
2013-01-04 20:01:00,19.7,13.7,30.33,East,86,5.0,10.0,77,0.00,,---,0.00,VWS V14.01,2013-01-05 02:01:00,
2013-01-04 20:06:00,19.6,13.6,30.33,ENE,78,5.0,7.0,77,0.00,,---,0.00,VWS V14.01,2013-01-05 02:06:00,
2013-01-04 20:11:00,19.5,13.5,30.33,East,94,3.0,8.0,77,0.00,,---,0.00,VWS V14.01,2013-01-05 02:11:00,
2013-01-04 20:16:00,19.2,13.2,30.33,East,80,7.0,8.0,77,0.00,,---,0.00,VWS V14.01,2013-01-05 02:16:00,
2013-01-04 20:21:00,19.1,13.4,30.33,ENE,70,6.0,10.0,78,0.00,,---,0.00,VWS V14.01,2013-01-05 02:21:00,
2013-01-04 20:26:00,19.1,13.4,30.33,East,101,7.0,10.0,78,0.00,,---,0.00,VWS V14.01,2013-01-05 02:26:00,
2013-01-04 20:31:00,19.0,13.3,30.33,East,85,6.0,10.0,78,0.00,,---,0.00,VWS V14.01,2013-01-05 02:31:00,
2013-01-04 20:36:00,19.0,13.3,30.32,East,91,6.0,9.0,78,0.00,,---,0.00,VWS V14.01,2013-01-05 02:36:00,
2013-01-04 20:41:00,19.2,13.5,30.32,East,85,7.0,10.0,78,0.00,,---,0.00,VWS V14.01,2013-01-05 02:41:00,
2013-01-04 20:46:00,19.3,13.6,30.32,East,83,6.0,10.0,78,0.00,,---,0.00,VWS V14.01,2013-01-05 02:46:00,
2013-01-04 20:51:00,19.3,13.6,30.32,ENE,75,7.0,10.0,78,0.00,,---,0.00,VWS V14.01,2013-01-05 02:51:00,
2013-01-04 20:56:00,19.3,13.6,30.32,East,80,4.0,10.0,78,0.00,,---,0.00,VWS V14.01,2013-01-05 02:56:00,
2013-01-04 21:01:00,19.2,13.5,30.32,ESE,118,1.0,10.0,78,0.00,,---,0.00,VWS V14.01,2013-01-05 03:01:00,
2013-01-04 21:06:00,19.0,13.3,30.32,ESE,102,2.0,2.0,78,0.00,,---,0.00,VWS V14.01,2013-01-05 03:06:00,
2013-01-04 21:11:00,18.9,13.5,30.32,East,95,1.0,4.0,79,0.00,,---,0.00,VWS V14.01,2013-01-05 03:11:00,
2013-01-04 21:16:00,18.9,13.5,30.31,ESE,113,1.0,7.0,79,0.00,,---,0.00,VWS V14.01,2013-01-05 03:16:00,
2013-01-04 21:21:00,18.9,13.5,30.31,ESE,120,3.0,7.0,79,0.00,,---,0.00,VWS V14.01,2013-01-05 03:21:00,
2013-01-04 21:26:00,18.6,13.2,30.32,East,98,3.0,7.0,79,0.00,,---,0.00,VWS V14.01,2013-01-05 03:26:00,
2013-01-04 21:31:00,18.7,13.3,30.32,East,89,3.0,7.0,79,0.00,,---,0.00,VWS V14.01,2013-01-05 03:31:00,
2013-01-04 21:36:00,18.6,13.2,30.32,East,82,3.0,5.0,79,0.00,,---,0.00,VWS V14.01,2013-01-05 03:36:00,
2013-01-04 21:41:00,18.5,13.1,30.32,East,82,2.0,6.0,79,0.00,,---,0.00,VWS V14.01,2013-01-05 03:41:00,
2013-01-04 21:46:00,18.3,12.9,30.32,East,83,1.0,6.0,79,0.00,,---,0.00,VWS V14.01,2013-01-05 03:46:00,
2013-01-04 21:51:00,17.9,12.5,30.32,East,82,4.0,6.0,79,0.00,,---,0.00,VWS V14.01,2013-01-05 03:51:00,
2013-01-04 21:56:00,17.8,12.7,30.31,East,82,4.0,7.0,80,0.00,,---,0.00,VWS V14.01,2013-01-05 03:56:00,
2013-01-04 22:01:00,17.8,12.7,30.31,ESE,106,1.0,7.0,80,0.00,,---,0.00,VWS V14.01,2013-01-05 04:01:00,
2013-01-04 22:06:00,17.8,12.7,30.31,East,80,3.0,5.0,80,0.00,,---,0.00,VWS V14.01,2013-01-05 04:06:00,
2013-01-04 22:11:00,17.7,12.6,30.31,East,87,2.0,5.0,80,0.00,,---,0.00,VWS V14.01,2013-01-05 04:11:00,
2013-01-04 22:16:00,17.4,12.3,30.30,ESE,116,0.0,5.0,80,0.00,,---,0.00,VWS V14.01,2013-01-05 04:16:00,
2013-01-04 22:21:00,17.4,12.6,30.30,East,101,0.0,5.0,81,0.00,,---,0.00,VWS V14.01,2013-01-05 04:21:00,
2013-01-04 22:26:00,17.4,12.6,30.30,ESE,109,0.0,5.0,81,0.00,,---,0.00,VWS V14.01,2013-01-05 04:26:00,
2013-01-04 22:31:00,17.5,12.7,30.30,East,96,2.0,5.0,81,0.00,,---,0.00,VWS V14.01,2013-01-05 04:31:00,
2013-01-04 22:36:00,17.4,12.6,30.30,East,88,1.0,5.0,81,0.00,,---,0.00,VWS V14.01,2013-01-05 04:36:00,
2013-01-04 22:41:00,17.5,12.7,30.30,East,88,4.0,7.0,81,0.00,,---,0.00,VWS V14.01,2013-01-05 04:41:00,
2013-01-04 22:46:00,17.4,12.3,30.30,East,94,1.0,7.0,80,0.00,,---,0.00,VWS V14.01,2013-01-05 04:46:00,
2013-01-04 22:51:00,17.1,12.0,30.31,East,88,3.0,7.0,80,0.00,,---,0.00,VWS V14.01,2013-01-05 04:51:00,
2013-01-04 22:56:00,17.0,12.2,30.30,East,98,1.0,7.0,81,0.00,,---,0.00,VWS V14.01,2013-01-05 04:56:00,
2013-01-04 23:00:00,17.0,12.2,30.30,East,85,1.0,7.0,81,0.00,,---,0.00,VWS V14.01,2013-01-05 05:00:00,
2013-01-04 23:01:00,17.0,12.2,30.30,East,96,0.0,7.0,81,0.00,,---,0.00,VWS V14.01,2013-01-05 05:01:00,
2013-01-04 23:06:00,17.2,12.4,30.30,ESE,117,1.0,9.0,81,0.00,,---,0.00,VWS V14.01,2013-01-05 05:06:00,
2013-01-04 23:11:00,17.3,12.5,30.30,ESE,109,1.0,9.0,81,0.00,,---,0.00,VWS V14.01,2013-01-05 05:11:00,
2013-01-04 23:16:00,17.3,12.5,30.30,East,92,3.0,9.0,81,0.00,,---,0.00,VWS V14.01,2013-01-05 05:16:00,
2013-01-04 23:21:00,17.1,12.3,30.30,East,80,5.0,9.0,81,0.00,,---,0.00,VWS V14.01,2013-01-05 05:21:00,
2013-01-04 23:26:00,17.0,12.2,30.30,East,92,4.0,9.0,81,0.00,,---,0.00,VWS V14.01,2013-01-05 05:26:00,
2013-01-04 23:31:00,16.8,12.0,30.30,ESE,119,3.0,9.0,81,0.00,,---,0.00,VWS V14.01,2013-01-05 05:31:00,
2013-01-04 23:36:00,16.8,12.0,30.29,East,99,2.0,5.0,81,0.00,,---,0.00,VWS V14.01,2013-01-05 05:36:00,
2013-01-04 23:41:00,16.9,12.4,30.29,ESE,111,0.0,5.0,82,0.00,,---,0.00,VWS V14.01,2013-01-05 05:41:00,
2013-01-04 23:46:00,17.0,12.5,30.29,East,91,4.0,6.0,82,0.00,,---,0.00,VWS V14.01,2013-01-05 05:46:00,
2013-01-04 23:51:00,17.0,12.2,30.28,East,98,1.0,6.0,81,0.00,,---,0.00,VWS V14.01,2013-01-05 05:51:00,
2013-01-04 23:56:00,16.8,12.3,30.28,East,92,2.0,6.0,82,0.00,,---,0.00,VWS V14.01,2013-01-05 05:56:00,